createdAt,value
2022-10-20T00:01:09.717Z,5.30
2022-10-20T00:03:37.112Z,5.77
2022-10-20T00:06:12.339Z,5.60
2022-10-20T00:08:40.736Z,5.33
2022-10-20T00:11:09.156Z,5.03
2022-10-20T00:13:40.229Z,5.03
2022-10-20T00:16:08.018Z,5.37
2022-10-20T00:18:35.304Z,5.13
2022-10-20T00:21:07.111Z,5.03
2022-10-20T00:23:34.394Z,5.33
2022-10-20T00:26:07.652Z,5.60
2022-10-20T00:28:35.626Z,5.73
2022-10-20T00:31:03.062Z,6.13
2022-10-20T00:33:30.007Z,5.70
2022-10-20T00:35:59.938Z,6.00
2022-10-20T00:38:27.129Z,5.60
2022-10-20T00:40:54.045Z,6.43
2022-10-20T00:43:21.470Z,6.00
2022-10-20T00:45:56.063Z,6.07
2022-10-20T00:48:28.184Z,6.43
2022-10-20T00:50:57.454Z,6.03
2022-10-20T00:53:28.625Z,5.70
2022-10-20T00:55:56.917Z,5.93
2022-10-20T00:58:24.638Z,6.33
2022-10-20T01:00:56.525Z,5.97
2022-10-20T01:03:28.405Z,6.63
2022-10-20T01:05:55.290Z,6.67
2022-10-20T01:08:22.166Z,6.27
2022-10-20T01:11:23.771Z,5.83
2022-10-20T01:14:09.532Z,5.93
2022-10-20T01:16:36.413Z,6.00
2022-10-20T01:19:30.651Z,6.50
2022-10-20T01:22:32.443Z,5.87
2022-10-20T01:25:05.614Z,6.13
2022-10-20T01:27:58.607Z,6.07
2022-10-20T01:30:25.578Z,6.60
2022-10-20T01:33:33.107Z,6.70
2022-10-20T01:36:21.377Z,6.27
2022-10-20T01:39:00.692Z,7.07
2022-10-20T01:41:33.995Z,6.13
2022-10-20T01:44:04.883Z,6.43
2022-10-20T01:46:33.072Z,7.00
2022-10-20T01:49:02.760Z,6.63
2022-10-20T01:51:29.968Z,7.40
2022-10-20T01:53:57.035Z,6.70
2022-10-20T01:56:42.146Z,7.03
2022-10-20T01:59:37.609Z,7.40
2022-10-20T02:02:23.137Z,7.37
2022-10-20T02:05:17.385Z,7.50
2022-10-20T02:07:44.472Z,7.90
2022-10-20T02:10:14.146Z,8.10
2022-10-20T02:12:45.401Z,8.17
2022-10-20T02:15:17.385Z,7.90
2022-10-20T02:17:47.225Z,8.27
2022-10-20T02:20:15.976Z,7.63
2022-10-20T02:22:43.297Z,8.30
2022-10-20T02:25:12.259Z,8.17
2022-10-20T02:27:43.339Z,9.03
2022-10-20T02:30:13.548Z,8.23
2022-10-20T02:32:42.092Z,8.53
2022-10-20T02:35:16.997Z,8.33
2022-10-20T02:37:43.989Z,9.13
2022-10-20T02:40:11.666Z,8.47
2022-10-20T02:42:40.599Z,9.07
2022-10-20T02:45:08.305Z,9.00
2022-10-20T02:47:35.573Z,8.87
2022-10-20T02:50:02.736Z,9.23
2022-10-20T02:52:29.808Z,9.60
2022-10-20T02:54:56.705Z,9.63
2022-10-20T02:57:23.832Z,9.17
2022-10-20T02:59:50.764Z,9.63
2022-10-20T03:02:17.804Z,9.00
2022-10-20T03:04:44.711Z,9.40
2022-10-20T03:07:12.178Z,8.93
2022-10-20T03:09:39.307Z,10.10
2022-10-20T03:12:06.397Z,10.77
2022-10-20T03:14:33.307Z,10.60
2022-10-20T03:17:00.127Z,10.87
2022-10-20T03:19:27.034Z,11.07
2022-10-20T03:21:54.123Z,11.00
2022-10-20T03:24:21.107Z,11.90
2022-10-20T03:26:48.001Z,12.07
2022-10-20T03:29:14.932Z,12.83
2022-10-20T03:31:41.984Z,13.13
2022-10-20T03:34:09.013Z,15.97
2022-10-20T03:36:35.974Z,13.20
2022-10-20T03:39:02.859Z,11.77
2022-10-20T03:41:29.811Z,11.57
2022-10-20T03:43:56.768Z,11.80
2022-10-20T03:46:23.795Z,12.03
2022-10-20T03:48:50.710Z,12.20
2022-10-20T03:51:17.661Z,11.60
2022-10-20T03:53:45.341Z,11.10
2022-10-20T03:56:18.000Z,12.00
2022-10-20T03:58:45.205Z,12.23
2022-10-20T04:01:17.717Z,11.70
2022-10-20T04:03:45.008Z,12.10
2022-10-20T04:06:15.866Z,13.53
2022-10-20T04:08:42.921Z,12.97
2022-10-20T04:11:10.022Z,12.40
2022-10-20T04:13:37.097Z,10.87
2022-10-20T04:16:04.138Z,11.80
2022-10-20T04:18:31.831Z,11.50
2022-10-20T04:20:59.136Z,11.53
2022-10-20T04:23:26.182Z,11.37
2022-10-20T04:25:53.121Z,11.40
2022-10-20T04:28:20.827Z,12.97
2022-10-20T04:30:49.253Z,14.27
2022-10-20T04:33:16.482Z,12.83
2022-10-20T04:35:43.602Z,15.23
2022-10-20T04:38:10.817Z,12.30
2022-10-20T04:40:37.738Z,12.57
2022-10-20T04:43:04.736Z,13.47
2022-10-20T04:45:31.755Z,10.70
2022-10-20T04:47:58.698Z,11.93
2022-10-20T04:50:25.655Z,14.37
2022-10-20T04:53:07.915Z,14.47
2022-10-20T04:55:35.438Z,14.30
2022-10-20T04:58:02.445Z,16.50
2022-10-20T05:00:29.865Z,11.43
2022-10-20T05:02:56.809Z,11.50
2022-10-20T05:05:23.843Z,11.30
2022-10-20T05:07:50.760Z,11.20
2022-10-20T05:10:19.348Z,10.80
2022-10-20T05:12:46.438Z,10.17
2022-10-20T05:15:13.296Z,11.40
2022-10-20T05:17:40.367Z,10.60
2022-10-20T05:20:07.763Z,10.80
2022-10-20T05:22:34.946Z,10.63
2022-10-20T05:25:24.544Z,11.70
2022-10-20T05:27:49.181Z,11.87
2022-10-20T05:30:16.187Z,12.53
2022-10-20T05:32:43.295Z,13.00
2022-10-20T05:35:10.169Z,14.47
2022-10-20T05:37:37.086Z,14.03
2022-10-20T05:40:09.497Z,13.80
2022-10-20T05:42:36.856Z,12.77
2022-10-20T05:45:05.381Z,13.47
2022-10-20T05:47:33.580Z,16.40
2022-10-20T05:50:00.501Z,12.83
2022-10-20T05:52:27.407Z,12.30
2022-10-20T05:54:54.333Z,12.67
2022-10-20T05:57:21.405Z,13.47
2022-10-20T05:59:48.498Z,12.07
2022-10-20T06:02:15.379Z,11.77
2022-10-20T06:04:42.249Z,10.90
2022-10-20T06:07:10.152Z,11.50
2022-10-20T06:09:38.429Z,11.20
2022-10-20T06:12:06.289Z,12.23
2022-10-20T06:14:33.583Z,11.93
2022-10-20T06:17:00.493Z,11.77
2022-10-20T06:19:30.191Z,11.53
2022-10-20T06:21:57.112Z,10.60
2022-10-20T06:24:24.241Z,10.47
2022-10-20T06:26:51.639Z,13.43
2022-10-20T06:29:20.606Z,11.03
2022-10-20T06:31:50.344Z,11.47
2022-10-20T06:34:22.674Z,9.87
2022-10-20T06:36:50.433Z,9.83
2022-10-20T06:39:23.013Z,9.77
2022-10-20T06:41:52.132Z,9.30
2022-10-20T06:44:20.803Z,8.87
2022-10-20T06:46:47.758Z,8.73
2022-10-20T06:49:15.292Z,8.33
2022-10-20T06:51:42.386Z,8.97
2022-10-20T06:54:09.480Z,9.37
2022-10-20T06:56:39.735Z,8.90
2022-10-20T06:59:07.055Z,8.83
2022-10-20T07:01:36.013Z,9.00
2022-10-20T07:04:06.376Z,8.87
2022-10-20T07:06:36.573Z,9.30
2022-10-20T07:09:05.053Z,10.27
2022-10-20T07:11:32.346Z,9.80
2022-10-20T07:14:00.058Z,9.70
2022-10-20T07:16:29.276Z,10.37
2022-10-20T07:18:57.349Z,9.33
2022-10-20T07:21:32.536Z,10.53
2022-10-20T07:24:04.939Z,9.60
2022-10-20T07:26:34.784Z,7.97
2022-10-20T07:29:03.759Z,7.43
2022-10-20T07:31:37.228Z,7.27
2022-10-20T07:34:20.421Z,7.10
2022-10-20T07:36:52.585Z,7.70
2022-10-20T07:39:19.520Z,7.23
2022-10-20T07:41:48.086Z,6.10
2022-10-20T07:44:16.133Z,6.73
2022-10-20T07:46:43.404Z,7.17
2022-10-20T07:49:43.021Z,5.80
2022-10-20T07:51:57.593Z,6.33
2022-10-20T07:54:24.481Z,6.53
2022-10-20T07:56:51.892Z,6.60
2022-10-20T07:59:19.363Z,6.90
2022-10-20T08:01:46.720Z,6.83
2022-10-20T08:04:13.776Z,6.80
2022-10-20T08:06:40.730Z,6.60
2022-10-20T08:09:07.826Z,7.23
2022-10-20T08:11:35.528Z,7.27
2022-10-20T08:14:02.518Z,7.10
2022-10-20T08:16:29.683Z,6.53
2022-10-20T08:19:00.994Z,5.90
2022-10-20T08:21:27.826Z,6.53
2022-10-20T08:23:54.751Z,5.80
2022-10-20T08:26:27.353Z,6.30
2022-10-20T08:28:55.182Z,6.53
2022-10-20T08:31:22.693Z,6.10
2022-10-20T08:33:52.636Z,6.20
2022-10-20T08:36:21.179Z,6.47
2022-10-20T08:38:48.642Z,6.20
2022-10-20T08:41:25.003Z,6.10
2022-10-20T08:43:55.074Z,6.40
2022-10-20T08:46:29.152Z,6.47
2022-10-20T08:48:57.373Z,6.78
2022-10-20T08:51:28.132Z,6.60
2022-10-20T08:53:58.316Z,6.28
2022-10-20T08:56:28.574Z,6.18
2022-10-20T08:58:56.241Z,6.28
2022-10-20T09:01:29.353Z,5.85
2022-10-20T09:03:59.731Z,6.03
2022-10-20T09:06:26.772Z,5.78
2022-10-20T09:08:56.120Z,4.95
2022-10-20T09:11:31.510Z,5.50
2022-10-20T09:13:58.511Z,5.50
2022-10-20T09:16:41.971Z,5.38
2022-10-20T09:19:21.157Z,5.88
2022-10-20T09:21:52.417Z,5.82
2022-10-20T09:24:22.382Z,5.22
2022-10-20T09:26:59.880Z,5.45
2022-10-20T09:29:38.804Z,5.15
2022-10-20T09:32:46.024Z,5.05
2022-10-20T09:35:21.639Z,4.97
2022-10-20T09:38:02.225Z,4.68
2022-10-20T09:40:30.002Z,4.85
2022-10-20T09:43:18.321Z,5.95
2022-10-20T09:46:00.120Z,5.22
2022-10-20T09:48:35.252Z,5.28
2022-10-20T09:51:02.815Z,5.25
2022-10-20T09:53:45.798Z,5.45
2022-10-20T09:56:12.884Z,4.95
2022-10-20T09:58:42.149Z,5.05
2022-10-20T10:01:12.296Z,5.40
2022-10-20T10:03:45.061Z,5.50
2022-10-20T10:06:30.497Z,5.13
2022-10-20T10:08:59.388Z,6.65
2022-10-20T10:11:38.098Z,5.15
2022-10-20T10:14:05.729Z,5.13
2022-10-20T10:16:43.185Z,5.28
2022-10-20T10:19:18.178Z,4.95
2022-10-20T10:21:53.748Z,5.53
2022-10-20T10:24:35.633Z,5.47
2022-10-20T10:27:02.712Z,5.18
2022-10-20T10:29:34.013Z,5.25
2022-10-20T10:32:14.554Z,5.35
2022-10-20T10:35:23.096Z,5.30
2022-10-20T10:37:50.462Z,5.18
2022-10-20T10:40:20.381Z,5.28
2022-10-20T10:43:09.458Z,5.22
2022-10-20T10:46:00.152Z,5.32
2022-10-20T10:48:29.986Z,5.70
2022-10-20T10:51:08.768Z,5.60
2022-10-20T10:53:59.535Z,5.30
2022-10-20T10:56:46.426Z,5.00
2022-10-20T10:59:36.351Z,5.03
2022-10-20T11:02:53.782Z,4.88
2022-10-20T11:05:46.641Z,4.90
2022-10-20T11:08:28.590Z,5.20
2022-10-20T11:11:21.032Z,4.65
2022-10-20T11:17:22.357Z,4.82
2022-10-20T11:20:12.502Z,5.35
2022-10-20T11:22:59.751Z,5.80
2022-10-20T11:25:46.668Z,5.70
2022-10-20T11:28:29.425Z,5.57
2022-10-20T11:30:59.167Z,5.90
2022-10-20T11:33:47.473Z,6.03
2022-10-20T11:36:21.851Z,5.68
2022-10-20T11:38:54.602Z,5.13
2022-10-20T11:41:32.152Z,5.20
2022-10-20T11:44:01.643Z,5.55
2022-10-20T11:46:43.997Z,5.72
2022-10-20T11:49:14.263Z,6.03
2022-10-20T11:51:59.955Z,5.85
2022-10-20T11:54:26.836Z,6.03
2022-10-20T11:57:31.885Z,5.72
2022-10-20T12:00:04.785Z,5.88
2022-10-20T12:03:10.374Z,6.15
2022-10-20T12:05:46.342Z,6.30
2022-10-20T12:08:41.177Z,5.80
2022-10-20T12:11:35.886Z,5.80
2022-10-20T12:14:27.830Z,6.07
2022-10-20T12:16:54.789Z,6.28
2022-10-20T12:19:23.553Z,6.45
2022-10-20T12:22:16.151Z,6.72
2022-10-20T12:24:50.468Z,6.18
2022-10-20T12:27:22.175Z,6.32
2022-10-20T12:29:55.757Z,5.80
2022-10-20T12:32:25.354Z,6.20
2022-10-20T12:34:59.732Z,6.53
2022-10-20T12:37:26.591Z,6.70
2022-10-20T12:39:56.018Z,6.45
2022-10-20T12:42:28.786Z,7.05
2022-10-20T12:45:02.565Z,7.40
2022-10-20T12:47:31.879Z,6.95
2022-10-20T12:50:20.363Z,7.07
2022-10-20T12:52:47.578Z,6.97
2022-10-20T12:55:19.915Z,6.80
2022-10-20T12:57:47.599Z,6.82
2022-10-20T13:00:21.437Z,7.25
2022-10-20T13:02:59.220Z,7.65
2022-10-20T13:05:45.345Z,7.50
2022-10-20T13:08:23.308Z,7.10
2022-10-20T13:10:53.748Z,6.70
2022-10-20T13:13:20.639Z,7.28
2022-10-20T13:15:50.882Z,7.00
2022-10-20T13:18:29.379Z,7.10
2022-10-20T13:21:18.310Z,7.25
2022-10-20T13:23:56.738Z,7.03
2022-10-20T13:26:57.592Z,7.30
2022-10-20T13:29:35.885Z,7.18
2022-10-20T13:32:24.128Z,7.85
2022-10-20T13:34:57.103Z,6.55
2022-10-20T13:37:42.740Z,8.18
2022-10-20T13:40:36.670Z,7.00
2022-10-20T13:43:12.737Z,7.85
2022-10-20T13:45:45.448Z,8.93
2022-10-20T13:48:15.115Z,8.40
2022-10-20T13:50:49.757Z,9.27
2022-10-20T13:53:25.923Z,9.00
2022-10-20T13:56:17.768Z,10.38
2022-10-20T13:59:06.114Z,11.20
2022-10-20T14:01:35.801Z,12.73
2022-10-20T14:04:03.019Z,12.02
2022-10-20T14:06:38.013Z,12.95
2022-10-20T14:09:17.430Z,12.75
2022-10-20T14:11:49.340Z,13.23
2022-10-20T14:14:19.839Z,13.07
2022-10-20T14:16:56.180Z,16.08
2022-10-20T14:19:28.099Z,14.90
2022-10-20T14:22:10.283Z,15.10
2022-10-20T14:24:43.630Z,15.30
2022-10-20T14:27:31.689Z,16.93
2022-10-20T14:29:59.698Z,16.03
2022-10-20T14:32:29.653Z,18.03
2022-10-20T14:35:16.523Z,17.50
2022-10-20T14:38:14.670Z,18.53
2022-10-20T14:40:48.124Z,22.17
2022-10-20T14:43:18.694Z,20.23
2022-10-20T14:45:55.307Z,20.23
2022-10-20T14:48:22.766Z,20.97
2022-10-20T14:50:49.982Z,20.97
2022-10-20T14:53:25.122Z,18.80
2022-10-20T14:55:52.021Z,18.33
2022-10-20T14:58:55.812Z,22.03
2022-10-20T15:01:31.568Z,22.40
2022-10-20T15:04:15.831Z,17.40
2022-10-20T15:06:43.942Z,21.43
2022-10-20T15:09:19.979Z,20.07
2022-10-20T15:11:47.029Z,21.63
2022-10-20T15:14:17.514Z,26.67
2022-10-20T15:16:47.265Z,23.90
2022-10-20T15:19:31.415Z,18.87
2022-10-20T15:24:40.632Z,18.97
2022-10-20T15:27:15.683Z,18.30
2022-10-20T15:29:52.194Z,19.60
2022-10-20T15:32:19.192Z,19.67
2022-10-20T15:34:46.175Z,19.80
2022-10-20T15:37:13.082Z,20.17
2022-10-20T15:39:39.959Z,20.00
2022-10-20T15:42:11.291Z,21.03
2022-10-20T15:44:38.382Z,19.30
2022-10-20T15:47:05.248Z,21.10
2022-10-20T15:49:32.231Z,20.57
2022-10-20T15:51:59.148Z,22.17
2022-10-20T15:54:26.253Z,20.00
2022-10-20T15:56:53.159Z,20.20
2022-10-20T15:59:20.322Z,19.90
2022-10-20T16:01:47.197Z,20.83
2022-10-20T16:04:23.736Z,21.73
2022-10-20T16:06:57.685Z,20.60
2022-10-20T16:09:26.241Z,21.03
2022-10-20T16:11:53.189Z,23.47
2022-10-20T16:14:20.077Z,23.17
2022-10-20T16:16:47.010Z,23.13
2022-10-20T16:19:14.136Z,22.43
2022-10-20T16:21:41.491Z,21.87
2022-10-20T16:24:08.498Z,20.90
2022-10-20T16:26:35.464Z,22.23
2022-10-20T16:29:02.304Z,22.43
2022-10-20T16:31:31.861Z,22.80
2022-10-20T16:34:00.305Z,21.63
2022-10-20T16:36:27.413Z,23.00
2022-10-20T16:38:57.551Z,22.57
2022-10-20T16:41:24.786Z,21.97
2022-10-20T16:43:51.884Z,22.33
2022-10-20T16:46:19.002Z,20.83
2022-10-20T16:48:47.871Z,23.70
2022-10-20T16:51:16.625Z,21.87
2022-10-20T16:53:43.668Z,22.73
2022-10-20T16:56:10.705Z,23.13
2022-10-20T16:58:37.613Z,21.97
2022-10-20T17:01:11.622Z,23.30
2022-10-20T17:06:16.902Z,22.17
2022-10-20T17:08:43.841Z,29.23
2022-10-20T17:11:14.277Z,23.47
2022-10-20T17:13:41.404Z,23.27
2022-10-20T17:16:14.239Z,23.70
2022-10-20T17:18:41.227Z,23.23
2022-10-20T17:21:08.888Z,24.33
2022-10-20T17:23:41.631Z,23.13
2022-10-20T17:26:14.004Z,24.73
2022-10-20T17:28:41.176Z,24.30
2022-10-20T17:31:10.613Z,24.40
2022-10-20T17:33:38.294Z,24.50
2022-10-20T17:36:06.368Z,22.77
2022-10-20T17:38:33.383Z,23.60
2022-10-20T17:41:11.896Z,22.43
2022-10-20T17:43:39.260Z,23.70
2022-10-20T17:46:12.859Z,24.07
2022-10-20T17:48:39.957Z,25.30
2022-10-20T17:51:16.143Z,27.67
2022-10-20T17:53:45.627Z,25.97
2022-10-20T17:56:18.138Z,26.50
2022-10-20T17:58:46.816Z,34.83
2022-10-20T18:01:17.811Z,41.53
2022-10-20T18:03:46.743Z,29.47
2022-10-20T18:06:16.442Z,26.23
2022-10-20T18:08:43.773Z,25.20
2022-10-20T18:11:17.053Z,29.80
2022-10-20T18:13:44.849Z,32.40
2022-10-20T18:16:14.629Z,31.83
2022-10-20T18:18:41.857Z,29.77
2022-10-20T18:21:11.626Z,28.53
2022-10-20T18:23:41.132Z,27.73
2022-10-20T18:26:10.744Z,27.60
2022-10-20T18:28:40.266Z,26.93
2022-10-20T18:31:12.094Z,25.03
2022-10-20T18:33:39.147Z,23.57
2022-10-20T18:36:08.160Z,24.27
2022-10-20T18:38:36.498Z,25.03
2022-10-20T18:41:15.854Z,25.13
2022-10-20T18:43:43.127Z,24.27
2022-10-20T18:46:10.391Z,23.57
2022-10-20T18:48:39.496Z,25.53
2022-10-20T18:51:07.946Z,22.90
2022-10-20T18:53:37.250Z,25.20
2022-10-20T18:56:06.088Z,23.57
2022-10-20T18:58:36.470Z,24.13
2022-10-20T19:01:09.663Z,24.70
2022-10-20T19:03:36.789Z,25.30
2022-10-20T19:06:16.330Z,26.77
2022-10-20T19:08:43.342Z,26.07
2022-10-20T19:11:13.358Z,24.97
2022-10-20T19:13:40.426Z,22.90
2022-10-20T19:16:16.212Z,22.77
2022-10-20T19:18:48.772Z,20.33
2022-10-20T19:21:16.460Z,22.20
2022-10-20T19:23:46.718Z,22.50
2022-10-20T19:26:29.355Z,21.40
2022-10-20T19:29:00.188Z,21.73
2022-10-20T19:31:29.550Z,21.47
2022-10-20T19:33:59.630Z,22.00
2022-10-20T19:36:27.932Z,20.60
2022-10-20T19:38:55.383Z,20.30
2022-10-20T19:41:23.192Z,21.30
2022-10-20T19:43:50.223Z,20.43
2022-10-20T19:46:19.215Z,25.03
2022-10-20T19:48:47.170Z,23.67
2022-10-20T19:51:15.996Z,26.17
2022-10-20T19:53:43.266Z,21.30
2022-10-20T19:56:11.400Z,19.40
2022-10-20T19:58:42.650Z,19.10
2022-10-20T20:01:12.733Z,16.83
2022-10-20T20:03:39.718Z,16.67
2022-10-20T20:06:09.837Z,15.03
2022-10-20T20:08:37.690Z,15.07
2022-10-20T20:11:05.827Z,13.90
2022-10-20T20:13:32.940Z,13.73
2022-10-20T20:16:07.255Z,14.40
2022-10-20T20:18:35.636Z,13.87
2022-10-20T20:21:04.893Z,13.20
2022-10-20T20:23:47.598Z,12.00
2022-10-20T20:26:21.155Z,12.80
2022-10-20T20:28:48.110Z,12.87
2022-10-20T20:31:15.101Z,13.00
2022-10-20T20:33:41.962Z,13.20
2022-10-20T20:36:09.513Z,13.10
2022-10-20T20:38:38.286Z,12.37
2022-10-20T20:41:08.133Z,11.53
2022-10-20T20:43:35.921Z,11.73
2022-10-20T20:46:04.858Z,11.70
2022-10-20T20:48:31.814Z,12.27
2022-10-20T20:51:00.122Z,13.10
2022-10-20T20:53:27.197Z,13.27
2022-10-20T20:56:01.603Z,12.17
2022-10-20T20:58:29.946Z,13.13
2022-10-20T21:01:08.823Z,12.30
2022-10-20T21:03:36.439Z,12.40
2022-10-20T21:06:08.682Z,12.73
2022-10-20T21:08:37.646Z,13.10
2022-10-20T21:11:06.918Z,12.53
2022-10-20T21:13:35.563Z,12.37
2022-10-20T21:16:19.626Z,12.87
2022-10-20T21:18:49.571Z,11.60
2022-10-20T21:21:22.287Z,10.73
2022-10-20T21:23:49.494Z,10.83
2022-10-20T21:26:17.743Z,10.00
2022-10-20T21:28:44.668Z,9.40
2022-10-20T21:31:18.161Z,8.57
2022-10-20T21:33:46.069Z,9.77
2022-10-20T21:36:15.138Z,8.67
2022-10-20T21:38:43.097Z,8.97
2022-10-20T21:41:19.165Z,8.80
2022-10-20T21:43:49.020Z,9.63
2022-10-20T21:46:18.960Z,10.30
2022-10-20T21:48:48.085Z,10.07
2022-10-20T21:51:23.624Z,10.40
2022-10-20T21:53:58.039Z,11.10
2022-10-20T21:56:25.177Z,10.40
2022-10-20T21:58:53.347Z,9.93
2022-10-20T22:01:23.341Z,10.63
2022-10-20T22:03:52.688Z,10.07
2022-10-20T22:06:21.231Z,9.90
2022-10-20T22:08:51.219Z,10.10
2022-10-20T22:11:26.303Z,10.20
2022-10-20T22:13:53.581Z,10.00
2022-10-20T22:16:23.552Z,10.33
2022-10-20T22:19:05.447Z,8.90
2022-10-20T22:21:35.522Z,9.30
2022-10-20T22:24:03.363Z,9.27
2022-10-20T22:26:30.995Z,9.47
2022-10-20T22:28:58.881Z,9.60
2022-10-20T22:31:27.043Z,8.50
2022-10-20T22:33:57.299Z,9.40
2022-10-20T22:36:24.800Z,9.57
2022-10-20T22:38:52.316Z,9.93
2022-10-20T22:41:19.470Z,9.80
2022-10-20T22:43:46.440Z,9.47
2022-10-20T22:46:13.393Z,9.53
2022-10-20T22:48:40.424Z,9.73
2022-10-20T22:51:09.158Z,9.10
2022-10-20T22:53:37.547Z,9.23
2022-10-20T22:56:05.738Z,9.23
2022-10-20T22:58:32.729Z,9.40
2022-10-20T23:00:59.789Z,9.77
2022-10-20T23:03:26.723Z,9.37
2022-10-20T23:05:53.625Z,8.73
2022-10-20T23:08:20.564Z,9.20
2022-10-20T23:10:56.562Z,8.67
2022-10-20T23:13:23.645Z,9.53
2022-10-20T23:15:52.532Z,8.67
2022-10-20T23:18:20.415Z,8.53
2022-10-20T23:20:47.421Z,9.07
2022-10-20T23:23:14.383Z,8.80
2022-10-20T23:25:42.560Z,9.40
2022-10-20T23:28:10.375Z,10.83
2022-10-20T23:30:37.514Z,9.40
2022-10-20T23:33:04.486Z,10.33
2022-10-20T23:35:31.432Z,9.20
2022-10-20T23:37:58.303Z,9.27
2022-10-20T23:40:25.285Z,9.50
2022-10-20T23:42:52.130Z,9.33
2022-10-20T23:45:19.038Z,9.37
2022-10-20T23:47:45.931Z,10.30
2022-10-20T23:50:12.908Z,9.57
2022-10-20T23:52:39.972Z,8.88
2022-10-20T23:55:11.912Z,9.50
2022-10-20T23:57:41.680Z,8.95
